HZC933 ZSHC-KLAX
Flight info
| Callsign | HZC933 |
|---|---|
| Flight time | N/A |
| Altitude | 31100 |
| Route | SUP91D SUPAR B221 NINAS G327 LAMEN/N0498F311 A593 SADLI Y590 BEDAR Y591 FUE Y23 KASTE Y81 TASOT Y57 POROT OTR11 AVBET OTR9 EMRON DCT 43N160E 46N170E 47N180E 48N170W 48N160W 47N150W 45N140W 42N130W DCT VESPA DCT ENI DCT OAK DCT BURGL BAYST1 |
| Aircraft | B77L/H-SDE1E2E3FGHIJ2J3J4J5M1RWXY/LB1D1 |
Departure
| Time | 2026-05-08 15:59 |
|---|---|
| Airport | Hangzhou Xiaoshan International Airport (ZSHC) |
Arrival
| Time | N/A |
|---|---|
| Airport | Los Angeles International Airport (KLAX) |
| Time | Latitude | Longitude | Altitude | Speed | Heading |
|---|---|---|---|---|---|
| 2026-05-08 15:35 | 30.23766 | 120.44139 | 36 ft | 0 kts | 332° |
| 2026-05-08 15:47 | 30.23748 | 120.44150 | 34 ft | 2 kts | 333° |
| 2026-05-08 15:48 | 30.23732 | 120.44190 | 34 ft | 4 kts | 239° |
| 2026-05-08 15:48 | 30.23739 | 120.44204 | 33 ft | 1 kts | 242° |
| 2026-05-08 15:50 | 30.23733 | 120.44191 | 34 ft | 6 kts | 242° |
| 2026-05-08 15:51 | 30.23702 | 120.44122 | 35 ft | 13 kts | 243° |
| 2026-05-08 15:51 | 30.23628 | 120.44078 | 36 ft | 13 kts | 190° |
| 2026-05-08 15:51 | 30.23542 | 120.44043 | 36 ft | 14 kts | 170° |
| 2026-05-08 15:51 | 30.23455 | 120.44078 | 36 ft | 14 kts | 185° |
| 2026-05-08 15:52 | 30.23392 | 120.44000 | 36 ft | 14 kts | 241° |
| 2026-05-08 15:52 | 30.23348 | 120.43901 | 36 ft | 14 kts | 243° |
| 2026-05-08 15:52 | 30.23305 | 120.43802 | 36 ft | 14 kts | 243° |
| 2026-05-08 15:52 | 30.23264 | 120.43707 | 37 ft | 14 kts | 243° |
| 2026-05-08 15:53 | 30.23222 | 120.43613 | 37 ft | 14 kts | 243° |
| 2026-05-08 15:53 | 30.23181 | 120.43520 | 37 ft | 14 kts | 243° |
| 2026-05-08 15:53 | 30.23137 | 120.43422 | 36 ft | 14 kts | 243° |
| 2026-05-08 15:53 | 30.23094 | 120.43324 | 37 ft | 14 kts | 243° |
| 2026-05-08 15:54 | 30.23045 | 120.43215 | 36 ft | 17 kts | 243° |
| 2026-05-08 15:54 | 30.22983 | 120.43074 | 37 ft | 22 kts | 243° |
| 2026-05-08 15:54 | 30.22908 | 120.42907 | 36 ft | 24 kts | 243° |
| 2026-05-08 15:54 | 30.22832 | 120.42734 | 36 ft | 24 kts | 243° |
| 2026-05-08 15:55 | 30.22755 | 120.42562 | 36 ft | 24 kts | 243° |
| 2026-05-08 15:55 | 30.22602 | 120.42216 | 36 ft | 24 kts | 243° |
| 2026-05-08 15:55 | 30.22525 | 120.42044 | 37 ft | 24 kts | 243° |
| 2026-05-08 15:56 | 30.22476 | 120.41933 | 36 ft | 20 kts | 243° |
| 2026-05-08 15:56 | 30.22412 | 120.41790 | 36 ft | 14 kts | 243° |
| 2026-05-08 15:56 | 30.22340 | 120.41726 | 36 ft | 12 kts | 178° |
| 2026-05-08 15:56 | 30.22318 | 120.41733 | 36 ft | 0 kts | 157° |
| 2026-05-08 15:57 | 30.22314 | 120.41735 | 35 ft | 2 kts | 157° |
| 2026-05-08 15:57 | 30.22280 | 120.41753 | 35 ft | 9 kts | 154° |
| 2026-05-08 15:57 | 30.22238 | 120.41821 | 34 ft | 13 kts | 82° |
| 2026-05-08 15:58 | 30.22257 | 120.41874 | 35 ft | 0 kts | 63° |
| 2026-05-08 15:58 | 30.22288 | 120.41944 | 35 ft | 34 kts | 63° |
| 2026-05-08 15:58 | 30.22504 | 120.42433 | 38 ft | 101 kts | 63° |
| 2026-05-08 15:58 | 30.22919 | 120.43367 | 38 ft | 158 kts | 63° |
| 2026-05-08 15:59 | 30.23478 | 120.44641 | 107 ft | 193 kts | 64° |
| 2026-05-08 15:59 | 30.24074 | 120.46021 | 659 ft | 189 kts | 67° |
| 2026-05-08 15:59 | 30.24232 | 120.47500 | 1025 ft | 188 kts | 107° |
| 2026-05-08 15:59 | 30.23929 | 120.48967 | 1458 ft | 191 kts | 102° |
| 2026-05-08 16:00 | 30.23654 | 120.51035 | 1871 ft | 208 kts | 101° |
| 2026-05-08 16:00 | 30.23508 | 120.52190 | 1993 ft | 222 kts | 101° |
| 2026-05-08 16:00 | 30.23273 | 120.54044 | 2226 ft | 241 kts | 100° |
| 2026-05-08 16:00 | 30.23031 | 120.55979 | 2795 ft | 247 kts | 100° |
| 2026-05-08 16:01 | 30.22756 | 120.57946 | 3459 ft | 247 kts | 106° |
| 2026-05-08 16:01 | 30.22266 | 120.59850 | 4154 ft | 248 kts | 109° |
| 2026-05-08 16:01 | 30.21709 | 120.61757 | 4809 ft | 252 kts | 109° |
| 2026-05-08 16:01 | 30.21153 | 120.63695 | 5428 ft | 256 kts | 108° |
| 2026-05-08 16:02 | 30.20602 | 120.65663 | 6057 ft | 259 kts | 108° |
| 2026-05-08 16:02 | 30.20049 | 120.67661 | 6682 ft | 263 kts | 108° |
| 2026-05-08 16:02 | 30.19490 | 120.69692 | 7207 ft | 268 kts | 108° |
| 2026-05-08 16:02 | 30.18874 | 120.71740 | 7705 ft | 273 kts | 116° |
| 2026-05-08 16:03 | 30.17908 | 120.73657 | 8176 ft | 279 kts | 123° |
| 2026-05-08 16:03 | 30.16828 | 120.75544 | 8741 ft | 283 kts | 123° |
| 2026-05-08 16:03 | 30.15745 | 120.77474 | 9253 ft | 289 kts | 122° |
| 2026-05-08 16:03 | 30.14661 | 120.79448 | 9728 ft | 296 kts | 122° |
| 2026-05-08 16:04 | 30.13539 | 120.81429 | 9842 ft | 295 kts | 131° |
| 2026-05-08 16:04 | 30.11958 | 120.82831 | 9908 ft | 294 kts | 157° |
| 2026-05-08 16:04 | 30.09996 | 120.83526 | 9882 ft | 296 kts | 167° |
| 2026-05-08 16:04 | 30.08017 | 120.84189 | 9846 ft | 296 kts | 153° |
| 2026-05-08 16:05 | 30.06422 | 120.85663 | 9882 ft | 296 kts | 125° |
| 2026-05-08 16:05 | 30.05587 | 120.87812 | 9894 ft | 297 kts | 97° |
| 2026-05-08 16:05 | 30.05645 | 120.90182 | 10289 ft | 301 kts | 76° |
| 2026-05-08 16:05 | 30.06483 | 120.92443 | 10398 ft | 314 kts | 53° |
| 2026-05-08 16:06 | 30.07844 | 120.94497 | 10550 ft | 331 kts | 51° |
| 2026-05-08 16:06 | 30.09293 | 120.96665 | 10694 ft | 351 kts | 51° |
| 2026-05-08 16:06 | 30.10810 | 120.98980 | 10892 ft | 370 kts | 52° |
| 2026-05-08 16:06 | 30.12374 | 121.01398 | 11330 ft | 380 kts | 52° |
| 2026-05-08 16:07 | 30.13965 | 121.03870 | 11908 ft | 387 kts | 52° |
| 2026-05-08 16:07 | 30.15571 | 121.06374 | 12625 ft | 389 kts | 51° |
| 2026-05-08 16:07 | 30.17187 | 121.08895 | 13392 ft | 391 kts | 51° |
| 2026-05-08 16:07 | 30.18813 | 121.11432 | 14071 ft | 395 kts | 51° |
| 2026-05-08 16:08 | 30.20462 | 121.14007 | 14621 ft | 401 kts | 51° |
| 2026-05-08 16:08 | 30.22130 | 121.16612 | 15216 ft | 405 kts | 51° |
| 2026-05-08 16:08 | 30.23819 | 121.19251 | 15697 ft | 412 kts | 51° |
| 2026-05-08 16:08 | 30.25538 | 121.21943 | 16153 ft | 420 kts | 52° |
| 2026-05-08 16:09 | 30.27198 | 121.24758 | 16631 ft | 427 kts | 54° |
| 2026-05-08 16:09 | 30.28834 | 121.27666 | 17049 ft | 436 kts | 54° |
| 2026-05-08 16:09 | 30.30489 | 121.30642 | 17513 ft | 442 kts | 54° |
| 2026-05-08 16:09 | 30.32165 | 121.33645 | 18013 ft | 447 kts | 54° |
| 2026-05-08 16:10 | 30.33872 | 121.36685 | 18483 ft | 453 kts | 54° |
| 2026-05-08 16:10 | 30.35606 | 121.39762 | 18884 ft | 459 kts | 54° |
| 2026-05-08 16:10 | 30.37362 | 121.42857 | 19366 ft | 462 kts | 53° |
| 2026-05-08 16:10 | 30.39142 | 121.45977 | 19788 ft | 466 kts | 53° |
| 2026-05-08 16:11 | 30.40943 | 121.49127 | 20227 ft | 471 kts | 53° |
| 2026-05-08 16:11 | 30.42758 | 121.52305 | 20675 ft | 474 kts | 53° |
| 2026-05-08 16:11 | 30.44556 | 121.55460 | 21093 ft | 478 kts | 54° |
| 2026-05-08 16:11 | 30.46422 | 121.58739 | 21513 ft | 483 kts | 54° |
| 2026-05-08 16:12 | 30.48274 | 121.62000 | 21936 ft | 486 kts | 54° |
| 2026-05-08 16:12 | 30.50138 | 121.65284 | 22381 ft | 490 kts | 54° |
| 2026-05-08 16:12 | 30.51992 | 121.68555 | 22779 ft | 494 kts | 54° |
| 2026-05-08 16:12 | 30.53882 | 121.71894 | 23207 ft | 497 kts | 52° |
| 2026-05-08 16:13 | 30.55792 | 121.75271 | 23595 ft | 501 kts | 51° |
| 2026-05-08 16:13 | 30.57710 | 121.78660 | 23940 ft | 505 kts | 51° |
| 2026-05-08 16:13 | 30.59644 | 121.82082 | 24243 ft | 509 kts | 52° |
| 2026-05-08 16:13 | 30.61591 | 121.85530 | 24552 ft | 512 kts | 52° |
| 2026-05-08 16:14 | 30.63547 | 121.88998 | 24876 ft | 515 kts | 53° |
| 2026-05-08 16:14 | 30.65506 | 121.92474 | 25205 ft | 518 kts | 53° |
| 2026-05-08 16:14 | 30.67488 | 121.95995 | 25532 ft | 521 kts | 53° |
| 2026-05-08 16:14 | 30.69484 | 121.99545 | 25857 ft | 525 kts | 53° |
| 2026-05-08 16:15 | 30.71418 | 122.02989 | 26200 ft | 528 kts | 52° |
| 2026-05-08 16:15 | 30.73428 | 122.06569 | 26514 ft | 531 kts | 52° |
| 2026-05-08 16:15 | 30.75449 | 122.10171 | 26794 ft | 535 kts | 53° |
| 2026-05-08 16:15 | 30.77568 | 122.13742 | 27041 ft | 534 kts | 45° |
| 2026-05-08 16:16 | 30.80185 | 122.16752 | 27262 ft | 527 kts | 32° |
| 2026-05-08 16:16 | 30.83213 | 122.19074 | 27559 ft | 520 kts | 21° |
| 2026-05-08 16:16 | 30.86505 | 122.20723 | 27880 ft | 510 kts | 9° |
| 2026-05-08 16:16 | 30.89916 | 122.21749 | 28202 ft | 509 kts | 6° |
| 2026-05-08 16:17 | 30.93323 | 122.23061 | 28338 ft | 525 kts | 20° |
| 2026-05-08 16:17 | 30.95405 | 122.24559 | 28434 ft | 541 kts | 33° |
| 2026-05-08 16:17 | 30.98710 | 122.29020 | 28774 ft | 561 kts | 58° |
| 2026-05-08 16:17 | 31.00148 | 122.33322 | 29045 ft | 569 kts | 78° |
| 2026-05-08 16:18 | 31.00487 | 122.37905 | 29295 ft | 569 kts | 95° |
| 2026-05-08 16:18 | 31.00158 | 122.42436 | 29661 ft | 569 kts | 97° |
| 2026-05-08 16:18 | 30.99929 | 122.47048 | 30029 ft | 570 kts | 93° |
| 2026-05-08 16:18 | 30.99894 | 122.51729 | 30400 ft | 571 kts | 91° |
| 2026-05-08 16:19 | 30.99953 | 122.56298 | 30750 ft | 570 kts | 90° |
| 2026-05-08 16:19 | 31.00007 | 122.60915 | 31108 ft | 570 kts | 91° |
| 2026-05-08 16:19 | 31.00018 | 122.65608 | 31283 ft | 574 kts | 91° |
| 2026-05-08 16:19 | 31.00013 | 122.70196 | 31293 ft | 576 kts | 91° |
| 2026-05-08 16:20 | 31.00009 | 122.79519 | 31292 ft | 573 kts | 91° |
| 2026-05-08 16:20 | 31.00011 | 122.88776 | 31294 ft | 570 kts | 91° |
| 2026-05-08 16:21 | 31.00719 | 122.97932 | 31297 ft | 568 kts | 73° |
| 2026-05-08 16:21 | 31.03635 | 123.06258 | 31304 ft | 563 kts | 54° |
| 2026-05-08 16:22 | 31.08174 | 123.13633 | 31305 ft | 560 kts | 48° |
| 2026-05-08 16:22 | 31.12825 | 123.20954 | 31300 ft | 564 kts | 49° |
| 2026-05-08 16:23 | 31.17419 | 123.28411 | 31298 ft | 566 kts | 50° |
| 2026-05-08 16:23 | 31.21965 | 123.35898 | 31291 ft | 565 kts | 50° |
| 2026-05-08 16:24 | 31.26508 | 123.43379 | 31305 ft | 563 kts | 50° |
| 2026-05-08 16:24 | 31.31033 | 123.50826 | 31299 ft | 560 kts | 50° |
| 2026-05-08 16:25 | 31.35542 | 123.58241 | 31280 ft | 558 kts | 50° |
| 2026-05-08 16:25 | 31.40055 | 123.65605 | 31287 ft | 557 kts | 49° |
| 2026-05-08 16:26 | 31.44580 | 123.72997 | 31305 ft | 559 kts | 49° |
| 2026-05-08 16:26 | 31.49108 | 123.80419 | 31299 ft | 561 kts | 49° |
| 2026-05-08 16:27 | 31.53649 | 123.87885 | 31297 ft | 563 kts | 49° |
| 2026-05-08 16:27 | 31.58131 | 123.95432 | 31273 ft | 567 kts | 54° |
| 2026-05-08 16:28 | 31.61606 | 124.03620 | 31289 ft | 573 kts | 65° |
| 2026-05-08 16:28 | 31.63967 | 124.12577 | 31291 ft | 576 kts | 74° |
| 2026-05-08 16:29 | 31.65899 | 124.21699 | 31276 ft | 575 kts | 74° |
| 2026-05-08 16:29 | 31.67855 | 124.30796 | 31306 ft | 575 kts | 73° |
| 2026-05-08 16:30 | 31.69848 | 124.39820 | 31291 ft | 575 kts | 73° |
| 2026-05-08 16:30 | 31.71865 | 124.48914 | 31280 ft | 575 kts | 73° |
| 2026-05-08 16:31 | 31.73865 | 124.57994 | 31283 ft | 575 kts | 73° |
| 2026-05-08 16:31 | 31.75860 | 124.67105 | 31276 ft | 576 kts | 73° |
| 2026-05-08 16:32 | 31.77849 | 124.76225 | 31290 ft | 576 kts | 73° |
| 2026-05-08 16:32 | 31.79834 | 124.85355 | 31277 ft | 577 kts | 73° |
| 2026-05-08 16:33 | 31.81697 | 124.94527 | 31273 ft | 578 kts | 80° |
| 2026-05-08 16:33 | 31.82128 | 125.03791 | 31286 ft | 577 kts | 93° |
| 2026-05-08 16:34 | 31.81032 | 125.13086 | 31280 ft | 573 kts | 104° |
| 2026-05-08 16:34 | 31.79413 | 125.22248 | 31273 ft | 572 kts | 104° |
| 2026-05-08 16:35 | 31.77858 | 125.31405 | 31268 ft | 572 kts | 103° |
| 2026-05-08 16:35 | 31.76357 | 125.40588 | 31271 ft | 571 kts | 103° |
| 2026-05-08 16:36 | 31.74853 | 125.49753 | 31306 ft | 572 kts | 103° |
| 2026-05-08 16:36 | 31.73356 | 125.58920 | 31272 ft | 573 kts | 100° |
| 2026-05-08 16:37 | 31.73044 | 125.68283 | 31279 ft | 574 kts | 85° |
| 2026-05-08 16:37 | 31.74341 | 125.77434 | 31259 ft | 572 kts | 72° |
| 2026-05-08 16:38 | 31.76480 | 125.86428 | 31261 ft | 572 kts | 72° |
| 2026-05-08 16:38 | 31.78484 | 125.95481 | 31266 ft | 573 kts | 73° |
| 2026-05-08 16:39 | 31.80421 | 126.04413 | 31297 ft | 573 kts | 73° |
| 2026-05-08 16:39 | 31.82405 | 126.13495 | 31261 ft | 574 kts | 73° |
| 2026-05-08 16:40 | 31.84387 | 126.22592 | 31258 ft | 575 kts | 73° |
| 2026-05-08 16:40 | 31.86359 | 126.31692 | 31266 ft | 574 kts | 74° |
| 2026-05-08 16:41 | 31.88325 | 126.40808 | 31246 ft | 574 kts | 74° |
| 2026-05-08 16:42 | 31.91284 | 126.54483 | 31252 ft | 575 kts | 73° |
| 2026-05-08 16:42 | 31.93302 | 126.63584 | 31255 ft | 575 kts | 73° |
| 2026-05-08 16:43 | 31.95319 | 126.72697 | 31255 ft | 575 kts | 73° |
| 2026-05-08 16:43 | 31.97317 | 126.81805 | 31260 ft | 573 kts | 74° |
| 2026-05-08 16:44 | 31.99300 | 126.90895 | 31260 ft | 573 kts | 74° |
| 2026-05-08 16:44 | 32.00940 | 126.98433 | 31258 ft | 573 kts | 74° |
| 2026-05-08 16:45 | 32.02885 | 127.07398 | 31253 ft | 574 kts | 74° |
| 2026-05-08 16:45 | 32.05890 | 127.17746 | 31244 ft | 570 kts | 62° |
| 2026-05-08 16:46 | 32.08670 | 127.24782 | 31246 ft | 570 kts | 61° |
| 2026-05-08 16:46 | 32.11968 | 127.33316 | 31244 ft | 572 kts | 63° |
| 2026-05-08 16:47 | 32.15183 | 127.41886 | 31241 ft | 572 kts | 63° |
| 2026-05-08 16:47 | 32.18397 | 127.50482 | 31239 ft | 572 kts | 63° |
| 2026-05-08 16:48 | 32.21610 | 127.59085 | 31245 ft | 573 kts | 63° |
| 2026-05-08 16:48 | 32.24821 | 127.67701 | 31240 ft | 574 kts | 63° |
| 2026-05-08 16:49 | 32.28029 | 127.76329 | 31227 ft | 573 kts | 63° |
| 2026-05-08 16:49 | 32.31209 | 127.84905 | 31240 ft | 574 kts | 63° |
| 2026-05-08 16:50 | 32.34412 | 127.93563 | 31236 ft | 575 kts | 63° |
| 2026-05-08 16:50 | 32.37554 | 128.02082 | 31229 ft | 575 kts | 63° |
| 2026-05-08 16:51 | 32.40745 | 128.10754 | 31223 ft | 574 kts | 63° |
| 2026-05-08 16:51 | 32.43926 | 128.19422 | 31209 ft | 574 kts | 63° |
| 2026-05-08 16:52 | 32.47098 | 128.28088 | 31219 ft | 573 kts | 63° |
| 2026-05-08 16:52 | 32.50259 | 128.36746 | 31222 ft | 572 kts | 63° |
| 2026-05-08 16:53 | 32.54989 | 128.49741 | 31221 ft | 573 kts | 63° |
| 2026-05-08 16:53 | 32.58138 | 128.58421 | 31223 ft | 573 kts | 63° |
| 2026-05-08 16:54 | 32.61287 | 128.67125 | 31206 ft | 574 kts | 63° |
| 2026-05-08 16:54 | 32.64426 | 128.75825 | 31219 ft | 574 kts | 63° |
| 2026-05-08 16:55 | 32.67361 | 128.84636 | 31206 ft | 576 kts | 70° |
| 2026-05-08 16:55 | 32.69313 | 128.93867 | 31200 ft | 577 kts | 76° |
| 2026-05-08 16:56 | 32.71079 | 129.02986 | 31257 ft | 577 kts | 75° |
| 2026-05-08 16:56 | 32.72925 | 129.12251 | 31205 ft | 577 kts | 75° |
| 2026-05-08 16:57 | 32.74805 | 129.21501 | 31202 ft | 576 kts | 75° |
| 2026-05-08 16:57 | 32.76679 | 129.30741 | 31203 ft | 575 kts | 75° |
| 2026-05-08 16:58 | 32.78539 | 129.39987 | 31226 ft | 575 kts | 75° |
| 2026-05-08 16:58 | 32.80387 | 129.49224 | 31201 ft | 575 kts | 75° |
| 2026-05-08 16:59 | 32.82229 | 129.58462 | 31187 ft | 574 kts | 75° |
| 2026-05-08 16:59 | 32.84062 | 129.67690 | 31195 ft | 574 kts | 76° |
| 2026-05-08 17:00 | 32.85580 | 129.77012 | 31235 ft | 575 kts | 79° |
| 2026-05-08 17:00 | 32.86892 | 129.86335 | 31194 ft | 575 kts | 80° |
| 2026-05-08 17:01 | 32.88203 | 129.95713 | 31198 ft | 574 kts | 79° |
| 2026-05-08 17:01 | 32.89516 | 130.04896 | 31182 ft | 574 kts | 80° |
| 2026-05-08 17:02 | 32.90858 | 130.14235 | 31195 ft | 572 kts | 80° |
| 2026-05-08 17:02 | 32.92194 | 130.23582 | 31204 ft | 572 kts | 80° |
| 2026-05-08 17:03 | 32.93515 | 130.32899 | 31192 ft | 571 kts | 80° |
| 2026-05-08 17:03 | 32.94828 | 130.42227 | 31197 ft | 570 kts | 80° |
| 2026-05-08 17:04 | 32.96131 | 130.51532 | 31196 ft | 570 kts | 81° |
| 2026-05-08 17:04 | 32.97427 | 130.60840 | 31211 ft | 570 kts | 81° |
| 2026-05-08 17:05 | 32.98719 | 130.70147 | 31206 ft | 570 kts | 81° |
| 2026-05-08 17:05 | 33.00002 | 130.79476 | 31212 ft | 570 kts | 81° |
| 2026-05-08 17:06 | 33.01268 | 130.88734 | 31206 ft | 571 kts | 81° |
| 2026-05-08 17:06 | 33.02541 | 130.98079 | 31218 ft | 572 kts | 81° |
| 2026-05-08 17:07 | 33.03789 | 131.07287 | 31215 ft | 572 kts | 81° |
| 2026-05-08 17:07 | 33.05047 | 131.16642 | 31207 ft | 572 kts | 81° |
| 2026-05-08 17:08 | 33.06299 | 131.26002 | 31203 ft | 572 kts | 82° |
| 2026-05-08 17:08 | 33.07545 | 131.35363 | 31201 ft | 571 kts | 82° |
| 2026-05-08 17:09 | 33.08785 | 131.44721 | 31193 ft | 572 kts | 82° |
| 2026-05-08 17:09 | 33.10018 | 131.54092 | 31186 ft | 572 kts | 82° |
| 2026-05-08 17:10 | 33.11245 | 131.63486 | 31184 ft | 574 kts | 82° |
| 2026-05-08 17:10 | 33.12470 | 131.72902 | 31173 ft | 575 kts | 82° |
| 2026-05-08 17:11 | 33.13688 | 131.82329 | 31158 ft | 575 kts | 82° |
| 2026-05-08 17:11 | 33.14900 | 131.91761 | 31165 ft | 575 kts | 82° |
| 2026-05-08 17:12 | 33.16082 | 132.01019 | 31141 ft | 574 kts | 82° |
| 2026-05-08 17:12 | 33.17277 | 132.10435 | 31164 ft | 574 kts | 82° |
| 2026-05-08 17:13 | 33.18459 | 132.19852 | 31134 ft | 574 kts | 82° |
| 2026-05-08 17:13 | 33.19623 | 132.29265 | 31153 ft | 572 kts | 82° |
| 2026-05-08 17:14 | 33.20776 | 132.38654 | 31156 ft | 571 kts | 82° |
| 2026-05-08 17:14 | 33.21923 | 132.48028 | 31157 ft | 571 kts | 83° |
| 2026-05-08 17:15 | 33.23063 | 132.57407 | 31154 ft | 571 kts | 83° |
| 2026-05-08 17:15 | 33.24207 | 132.66781 | 31133 ft | 570 kts | 83° |
| 2026-05-08 17:16 | 33.25355 | 132.76092 | 31161 ft | 570 kts | 83° |
| 2026-05-08 17:16 | 33.26504 | 132.85473 | 31164 ft | 572 kts | 83° |
| 2026-05-08 17:17 | 33.27647 | 132.94871 | 31150 ft | 572 kts | 83° |
| 2026-05-08 17:17 | 33.28764 | 133.04140 | 31136 ft | 573 kts | 83° |
| 2026-05-08 17:18 | 33.29888 | 133.13551 | 31197 ft | 571 kts | 83° |
| 2026-05-08 17:18 | 33.30987 | 133.22978 | 31141 ft | 573 kts | 84° |
| 2026-05-08 17:19 | 33.32079 | 133.32449 | 31134 ft | 576 kts | 84° |
| 2026-05-08 17:19 | 33.33167 | 133.41937 | 31137 ft | 577 kts | 84° |
| 2026-05-08 17:20 | 33.34255 | 133.51430 | 31154 ft | 577 kts | 84° |
| 2026-05-08 17:20 | 33.35337 | 133.60950 | 31132 ft | 578 kts | 84° |
| 2026-05-08 17:21 | 33.36412 | 133.70461 | 31118 ft | 576 kts | 84° |
| 2026-05-08 17:21 | 33.37476 | 133.79959 | 31120 ft | 575 kts | 84° |
| 2026-05-08 17:22 | 33.38530 | 133.89435 | 31133 ft | 574 kts | 85° |
| 2026-05-08 17:22 | 33.39577 | 133.98907 | 31126 ft | 574 kts | 85° |
| 2026-05-08 17:23 | 33.40592 | 134.08160 | 31121 ft | 574 kts | 85° |
| 2026-05-08 17:23 | 33.41626 | 134.17644 | 31113 ft | 575 kts | 85° |
| 2026-05-08 17:24 | 33.42650 | 134.27120 | 31110 ft | 575 kts | 85° |
| 2026-05-08 17:24 | 33.43668 | 134.36613 | 31120 ft | 576 kts | 85° |
| 2026-05-08 17:25 | 33.44683 | 134.46127 | 31106 ft | 577 kts | 86° |
| 2026-05-08 17:25 | 33.45694 | 134.55679 | 31141 ft | 579 kts | 85° |
| 2026-05-08 17:26 | 33.46696 | 134.65262 | 31090 ft | 580 kts | 86° |
| 2026-05-08 17:26 | 33.47688 | 134.74836 | 31112 ft | 580 kts | 86° |
| 2026-05-08 17:27 | 33.48677 | 134.84438 | 31117 ft | 581 kts | 86° |
| 2026-05-08 17:27 | 33.49661 | 134.94060 | 31115 ft | 582 kts | 86° |
| 2026-05-08 17:28 | 33.50626 | 135.03526 | 31088 ft | 580 kts | 86° |
| 2026-05-08 17:28 | 33.51604 | 135.13120 | 31097 ft | 579 kts | 86° |
| 2026-05-08 17:29 | 33.52574 | 135.22697 | 31068 ft | 579 kts | 86° |
| 2026-05-08 17:29 | 33.53533 | 135.32260 | 31093 ft | 578 kts | 87° |
| 2026-05-08 17:30 | 33.54484 | 135.41823 | 31105 ft | 579 kts | 87° |
| 2026-05-08 17:30 | 33.55429 | 135.51408 | 31099 ft | 580 kts | 87° |
| 2026-05-08 17:31 | 33.56363 | 135.60956 | 31107 ft | 581 kts | 87° |
| 2026-05-08 17:31 | 33.57308 | 135.70644 | 31087 ft | 581 kts | 87° |
| 2026-05-08 17:32 | 33.58230 | 135.80220 | 31076 ft | 582 kts | 88° |
| 2026-05-08 17:32 | 33.59152 | 135.89930 | 31065 ft | 583 kts | 88° |
| 2026-05-08 17:33 | 33.60064 | 135.99542 | 31078 ft | 584 kts | 88° |
| 2026-05-08 17:33 | 33.60961 | 136.09078 | 31068 ft | 586 kts | 88° |
| 2026-05-08 17:34 | 33.61867 | 136.18799 | 31083 ft | 587 kts | 88° |
| 2026-05-08 17:34 | 33.62620 | 136.26960 | 31070 ft | 588 kts | 88° |
| 2026-05-08 17:35 | 33.63514 | 136.36709 | 31058 ft | 587 kts | 88° |
| 2026-05-08 17:35 | 33.64398 | 136.46437 | 31058 ft | 587 kts | 88° |
| 2026-05-08 17:36 | 33.65274 | 136.56173 | 31061 ft | 586 kts | 88° |
| 2026-05-08 17:36 | 33.66136 | 136.65829 | 31065 ft | 586 kts | 88° |
| 2026-05-08 17:37 | 33.66996 | 136.75542 | 31062 ft | 585 kts | 88° |
| 2026-05-08 17:37 | 33.67847 | 136.85253 | 31061 ft | 584 kts | 88° |
| 2026-05-08 17:38 | 33.68689 | 136.94943 | 31059 ft | 583 kts | 88° |
| 2026-05-08 17:38 | 33.69511 | 137.04490 | 31058 ft | 583 kts | 88° |
| 2026-05-08 17:39 | 33.70250 | 137.14182 | 31052 ft | 581 kts | 91° |
| 2026-05-08 17:39 | 33.70562 | 137.23867 | 31052 ft | 580 kts | 93° |
| 2026-05-08 17:40 | 33.70795 | 137.33532 | 31051 ft | 580 kts | 93° |
| 2026-05-08 17:40 | 33.71053 | 137.43245 | 31051 ft | 580 kts | 93° |
| 2026-05-08 17:41 | 33.71331 | 137.52925 | 31037 ft | 580 kts | 92° |
| 2026-05-08 17:41 | 33.71605 | 137.62612 | 31039 ft | 580 kts | 93° |
| 2026-05-08 17:42 | 33.71868 | 137.72295 | 31037 ft | 580 kts | 93° |
| 2026-05-08 17:42 | 33.72122 | 137.81979 | 31027 ft | 580 kts | 93° |
| 2026-05-08 17:43 | 33.72367 | 137.91644 | 31011 ft | 578 kts | 93° |
| 2026-05-08 17:43 | 33.72602 | 138.01148 | 31018 ft | 577 kts | 93° |
| 2026-05-08 17:44 | 33.72831 | 138.10781 | 31020 ft | 577 kts | 94° |
| 2026-05-08 17:44 | 33.73053 | 138.20406 | 31022 ft | 576 kts | 94° |
| 2026-05-08 17:45 | 33.73266 | 138.29959 | 31010 ft | 576 kts | 94° |
| 2026-05-08 17:45 | 33.73474 | 138.39565 | 30991 ft | 575 kts | 94° |
| 2026-05-08 17:46 | 33.74437 | 138.49143 | 31009 ft | 583 kts | 77° |
| 2026-05-08 17:46 | 33.77361 | 138.58226 | 31003 ft | 586 kts | 60° |
| 2026-05-08 17:47 | 33.81639 | 138.66547 | 30988 ft | 585 kts | 56° |
| 2026-05-08 17:47 | 33.85251 | 138.73426 | 30993 ft | 585 kts | 57° |
| 2026-05-08 17:48 | 33.90224 | 138.83176 | 30982 ft | 585 kts | 58° |
| 2026-05-08 17:48 | 33.94426 | 138.91573 | 30978 ft | 585 kts | 58° |
| 2026-05-08 17:49 | 33.98618 | 138.99962 | 30966 ft | 584 kts | 58° |
| 2026-05-08 17:49 | 34.02729 | 139.08185 | 30967 ft | 584 kts | 58° |
| 2026-05-08 17:50 | 34.06914 | 139.16568 | 30952 ft | 584 kts | 58° |
| 2026-05-08 17:50 | 34.11094 | 139.24965 | 30956 ft | 583 kts | 58° |
| 2026-05-08 17:51 | 34.15265 | 139.33364 | 30950 ft | 583 kts | 58° |
| 2026-05-08 17:51 | 34.19435 | 139.41773 | 30941 ft | 584 kts | 58° |
| 2026-05-08 17:52 | 34.23600 | 139.50194 | 30934 ft | 584 kts | 58° |
| 2026-05-08 17:53 | 34.29841 | 139.62854 | 30930 ft | 585 kts | 58° |
| 2026-05-08 17:53 | 34.34002 | 139.71318 | 30926 ft | 585 kts | 58° |
| 2026-05-08 17:54 | 34.38158 | 139.79795 | 30925 ft | 586 kts | 58° |
| 2026-05-08 17:54 | 34.42314 | 139.88290 | 30897 ft | 586 kts | 58° |
| 2026-05-08 17:55 | 34.46459 | 139.96784 | 30895 ft | 586 kts | 58° |
| 2026-05-08 17:55 | 34.50536 | 140.05159 | 30901 ft | 586 kts | 59° |
| 2026-05-08 17:56 | 34.54662 | 140.13654 | 30891 ft | 585 kts | 59° |
| 2026-05-08 17:56 | 34.58788 | 140.22171 | 30891 ft | 585 kts | 59° |
| 2026-05-08 17:57 | 34.62880 | 140.30638 | 30886 ft | 585 kts | 59° |
| 2026-05-08 17:57 | 34.66990 | 140.39165 | 30870 ft | 585 kts | 59° |
| 2026-05-08 17:58 | 34.71110 | 140.47756 | 30871 ft | 585 kts | 60° |
| 2026-05-08 17:58 | 34.75091 | 140.56367 | 30883 ft | 585 kts | 61° |
| 2026-05-08 17:59 | 34.79008 | 140.64967 | 30877 ft | 585 kts | 61° |
| 2026-05-08 17:59 | 34.82957 | 140.73624 | 30859 ft | 585 kts | 61° |
| 2026-05-08 18:00 | 34.86943 | 140.82340 | 30864 ft | 585 kts | 61° |
| 2026-05-08 18:00 | 34.92838 | 140.95255 | 30864 ft | 585 kts | 61° |
| 2026-05-08 18:01 | 34.96713 | 141.03780 | 30864 ft | 585 kts | 61° |
| 2026-05-08 18:01 | 35.00644 | 141.12450 | 30849 ft | 585 kts | 61° |
| 2026-05-08 18:02 | 35.03915 | 141.19682 | 30875 ft | 586 kts | 61° |
| 2026-05-08 18:02 | 35.08514 | 141.29874 | 30882 ft | 587 kts | 61° |
| 2026-05-08 18:03 | 35.12443 | 141.38605 | 30856 ft | 587 kts | 61° |
| 2026-05-08 18:03 | 35.16367 | 141.47348 | 30852 ft | 587 kts | 62° |
| 2026-05-08 18:04 | 35.20284 | 141.56097 | 30856 ft | 587 kts | 62° |
| 2026-05-08 18:04 | 35.24195 | 141.64855 | 30849 ft | 586 kts | 62° |
| 2026-05-08 18:05 | 35.28098 | 141.73619 | 30850 ft | 586 kts | 62° |
| 2026-05-08 18:05 | 35.31988 | 141.82374 | 30848 ft | 586 kts | 62° |
| 2026-05-08 18:06 | 35.35869 | 141.91133 | 30849 ft | 585 kts | 62° |
| 2026-05-08 18:06 | 35.39745 | 141.99906 | 30847 ft | 585 kts | 62° |
| 2026-05-08 18:07 | 35.43526 | 142.08483 | 30844 ft | 585 kts | 62° |
| 2026-05-08 18:07 | 35.47390 | 142.17271 | 30849 ft | 585 kts | 62° |
| 2026-05-08 18:08 | 35.51243 | 142.26057 | 30847 ft | 585 kts | 62° |
| 2026-05-08 18:08 | 35.55092 | 142.34857 | 30842 ft | 586 kts | 62° |
| 2026-05-08 18:09 | 35.58939 | 142.43676 | 30855 ft | 587 kts | 63° |
| 2026-05-08 18:09 | 35.62792 | 142.52534 | 30852 ft | 588 kts | 63° |
| 2026-05-08 18:10 | 35.66644 | 142.61411 | 30848 ft | 589 kts | 63° |
| 2026-05-08 18:10 | 35.70492 | 142.70302 | 30850 ft | 589 kts | 63° |
| 2026-05-08 18:11 | 35.74335 | 142.79207 | 30849 ft | 589 kts | 63° |
| 2026-05-08 18:11 | 35.78169 | 142.88113 | 30853 ft | 588 kts | 63° |
| 2026-05-08 18:12 | 35.81989 | 142.97012 | 30849 ft | 588 kts | 63° |
| 2026-05-08 18:12 | 35.85735 | 143.05762 | 30842 ft | 587 kts | 64° |
| 2026-05-08 18:13 | 35.89530 | 143.14664 | 30854 ft | 586 kts | 65° |
| 2026-05-08 18:13 | 35.92514 | 143.23942 | 30851 ft | 580 kts | 77° |
| 2026-05-08 18:14 | 35.94255 | 143.33597 | 30851 ft | 573 kts | 88° |
| 2026-05-08 18:14 | 35.95198 | 143.43360 | 30852 ft | 574 kts | 89° |
| 2026-05-08 18:15 | 35.96121 | 143.53163 | 30855 ft | 576 kts | 89° |
| 2026-05-08 18:15 | 35.97092 | 143.62977 | 30853 ft | 576 kts | 88° |
| 2026-05-08 18:16 | 35.98084 | 143.72792 | 30867 ft | 576 kts | 88° |
| 2026-05-08 18:16 | 35.99071 | 143.82613 | 30836 ft | 575 kts | 88° |
| 2026-05-08 18:17 | 36.00037 | 143.92356 | 30846 ft | 572 kts | 89° |
| 2026-05-08 18:17 | 36.00972 | 144.01905 | 30847 ft | 570 kts | 89° |
| 2026-05-08 18:18 | 36.01914 | 144.11611 | 30851 ft | 569 kts | 89° |
| 2026-05-08 18:18 | 36.02847 | 144.21309 | 30853 ft | 568 kts | 89° |
| 2026-05-08 18:19 | 36.03766 | 144.30944 | 30849 ft | 569 kts | 89° |
| 2026-05-08 18:19 | 36.04686 | 144.40671 | 30857 ft | 571 kts | 89° |
| 2026-05-08 18:20 | 36.05600 | 144.50422 | 30848 ft | 572 kts | 88° |
| 2026-05-08 18:20 | 36.06509 | 144.60182 | 30852 ft | 572 kts | 88° |
| 2026-05-08 18:21 | 36.07263 | 144.68352 | 30850 ft | 569 kts | 88° |
| 2026-05-08 18:21 | 36.08294 | 144.79611 | 30846 ft | 565 kts | 88° |
| 2026-05-08 18:22 | 36.09020 | 144.87629 | 30849 ft | 563 kts | 88° |
| 2026-05-08 18:22 | 36.09888 | 144.97290 | 30849 ft | 561 kts | 88° |
| 2026-05-08 18:23 | 36.10725 | 145.06709 | 30853 ft | 560 kts | 88° |
| 2026-05-08 18:23 | 36.11569 | 145.16281 | 30852 ft | 560 kts | 88° |
| 2026-05-08 18:24 | 36.12402 | 145.25809 | 30857 ft | 561 kts | 88° |
| 2026-05-08 18:24 | 36.13233 | 145.35404 | 30858 ft | 562 kts | 88° |
| 2026-05-08 18:25 | 36.14584 | 145.44951 | 30853 ft | 569 kts | 76° |
| 2026-05-08 18:25 | 36.17454 | 145.54114 | 30860 ft | 573 kts | 63° |
| 2026-05-08 18:26 | 36.21413 | 145.62672 | 30858 ft | 573 kts | 59° |
| 2026-05-08 18:26 | 36.25466 | 145.71192 | 30852 ft | 574 kts | 60° |
| 2026-05-08 18:27 | 36.28785 | 145.78289 | 30862 ft | 573 kts | 60° |
| 2026-05-08 18:27 | 36.33398 | 145.88328 | 30852 ft | 572 kts | 60° |
| 2026-05-08 18:28 | 36.37310 | 145.96903 | 30846 ft | 571 kts | 60° |
| 2026-05-08 18:28 | 36.41150 | 146.05328 | 30835 ft | 570 kts | 60° |
| 2026-05-08 18:29 | 36.45046 | 146.13888 | 30849 ft | 569 kts | 60° |
| 2026-05-08 18:29 | 36.48930 | 146.22438 | 30848 ft | 568 kts | 60° |
| 2026-05-08 18:30 | 36.52808 | 146.30997 | 30847 ft | 568 kts | 60° |
| 2026-05-08 18:30 | 36.56673 | 146.39553 | 30845 ft | 567 kts | 60° |
| 2026-05-08 18:31 | 36.60531 | 146.48115 | 30842 ft | 568 kts | 61° |
| 2026-05-08 18:31 | 36.64364 | 146.56643 | 30840 ft | 568 kts | 61° |
| 2026-05-08 18:32 | 36.68210 | 146.65224 | 30840 ft | 568 kts | 61° |
| 2026-05-08 18:32 | 36.72062 | 146.73838 | 30838 ft | 569 kts | 61° |
| 2026-05-08 18:33 | 36.75904 | 146.82454 | 30843 ft | 569 kts | 61° |
| 2026-05-08 18:33 | 36.79742 | 146.91083 | 30838 ft | 569 kts | 61° |
| 2026-05-08 18:34 | 36.83577 | 146.99726 | 30844 ft | 569 kts | 61° |
| 2026-05-08 18:34 | 36.87330 | 147.08211 | 30844 ft | 570 kts | 62° |
| 2026-05-08 18:35 | 36.91160 | 147.16888 | 30840 ft | 570 kts | 62° |
| 2026-05-08 18:35 | 36.94976 | 147.25558 | 30837 ft | 570 kts | 62° |
| 2026-05-08 18:36 | 36.98794 | 147.34256 | 30837 ft | 570 kts | 62° |
| 2026-05-08 18:36 | 37.02593 | 147.42934 | 30838 ft | 569 kts | 62° |
| 2026-05-08 18:37 | 37.06383 | 147.51614 | 30842 ft | 568 kts | 62° |
| 2026-05-08 18:37 | 37.10158 | 147.60283 | 30841 ft | 567 kts | 62° |
| 2026-05-08 18:38 | 37.13922 | 147.68949 | 30830 ft | 566 kts | 62° |
| 2026-05-08 18:38 | 37.17679 | 147.77623 | 30836 ft | 565 kts | 62° |
| 2026-05-08 18:39 | 37.21423 | 147.86290 | 30838 ft | 565 kts | 62° |
| 2026-05-08 18:39 | 37.25158 | 147.94960 | 30829 ft | 565 kts | 62° |
| 2026-05-08 18:40 | 37.28817 | 148.03474 | 30842 ft | 564 kts | 62° |
| 2026-05-08 18:40 | 37.32514 | 148.12101 | 30840 ft | 564 kts | 62° |
| 2026-05-08 18:41 | 37.36229 | 148.20794 | 30843 ft | 565 kts | 62° |
| 2026-05-08 18:41 | 37.39935 | 148.29489 | 30846 ft | 564 kts | 62° |
| 2026-05-08 18:42 | 37.43637 | 148.38198 | 30838 ft | 564 kts | 62° |
| 2026-05-08 18:42 | 37.47335 | 148.46920 | 30837 ft | 564 kts | 62° |
| 2026-05-08 18:43 | 37.51015 | 148.55626 | 30841 ft | 564 kts | 62° |
| 2026-05-08 18:43 | 37.54695 | 148.64353 | 30859 ft | 563 kts | 62° |
| 2026-05-08 18:44 | 37.58366 | 148.73082 | 30849 ft | 564 kts | 63° |
| 2026-05-08 18:44 | 37.62032 | 148.81827 | 30841 ft | 564 kts | 62° |
| 2026-05-08 18:45 | 37.65691 | 148.90576 | 30849 ft | 564 kts | 62° |
| 2026-05-08 18:45 | 37.69346 | 148.99340 | 30846 ft | 564 kts | 63° |
| 2026-05-08 18:46 | 37.72928 | 149.07954 | 30838 ft | 564 kts | 63° |
| 2026-05-08 18:46 | 37.76546 | 149.16676 | 30841 ft | 564 kts | 63° |
| 2026-05-08 18:47 | 37.80184 | 149.25473 | 30844 ft | 565 kts | 63° |
| 2026-05-08 18:47 | 37.83818 | 149.34283 | 30846 ft | 565 kts | 63° |
| 2026-05-08 18:48 | 37.87439 | 149.43087 | 30848 ft | 565 kts | 63° |
| 2026-05-08 18:48 | 37.91061 | 149.51920 | 30850 ft | 565 kts | 63° |
| 2026-05-08 18:49 | 37.94675 | 149.60756 | 30847 ft | 565 kts | 63° |
| 2026-05-08 18:49 | 37.98277 | 149.69589 | 30852 ft | 564 kts | 63° |
| 2026-05-08 18:50 | 38.01865 | 149.78410 | 30850 ft | 563 kts | 63° |
| 2026-05-08 18:50 | 38.05443 | 149.87236 | 30853 ft | 562 kts | 63° |
| 2026-05-08 18:51 | 38.09012 | 149.96058 | 30855 ft | 561 kts | 63° |
| 2026-05-08 18:51 | 38.12933 | 150.04385 | 30851 ft | 560 kts | 53° |
| 2026-05-08 18:52 | 38.17526 | 150.12359 | 30879 ft | 559 kts | 52° |
| 2026-05-08 18:52 | 38.22156 | 150.20337 | 30848 ft | 561 kts | 52° |
| 2026-05-08 18:53 | 38.26761 | 150.28392 | 30848 ft | 564 kts | 53° |
| 2026-05-08 18:53 | 38.31345 | 150.36502 | 30854 ft | 565 kts | 53° |
| 2026-05-08 18:54 | 38.35932 | 150.44650 | 30852 ft | 567 kts | 53° |
| 2026-05-08 18:54 | 38.40525 | 150.52822 | 30848 ft | 567 kts | 53° |
| 2026-05-08 18:55 | 38.47409 | 150.65095 | 30846 ft | 566 kts | 53° |
| 2026-05-08 18:56 | 38.51986 | 150.73279 | 30843 ft | 566 kts | 53° |
| 2026-05-08 18:56 | 38.56546 | 150.81457 | 30845 ft | 565 kts | 53° |
| 2026-05-08 18:57 | 38.61100 | 150.89641 | 30851 ft | 565 kts | 53° |
| 2026-05-08 18:57 | 38.65643 | 150.97828 | 30843 ft | 565 kts | 53° |
| 2026-05-08 18:58 | 38.70101 | 151.05882 | 30831 ft | 564 kts | 53° |
| 2026-05-08 18:58 | 38.74603 | 151.14037 | 30849 ft | 564 kts | 53° |
| 2026-05-08 18:59 | 38.79152 | 151.22296 | 30854 ft | 564 kts | 53° |
| 2026-05-08 18:59 | 38.83639 | 151.30463 | 30851 ft | 564 kts | 53° |
| 2026-05-08 19:00 | 38.87418 | 151.37359 | 30848 ft | 564 kts | 53° |
| 2026-05-08 19:00 | 38.92646 | 151.46923 | 30858 ft | 564 kts | 53° |
| 2026-05-08 19:01 | 38.97149 | 151.55182 | 30873 ft | 564 kts | 53° |
| 2026-05-08 19:01 | 39.01641 | 151.63444 | 30862 ft | 565 kts | 53° |
| 2026-05-08 19:02 | 39.06141 | 151.71742 | 30853 ft | 565 kts | 53° |
| 2026-05-08 19:02 | 39.10635 | 151.80048 | 30857 ft | 565 kts | 53° |
| 2026-05-08 19:03 | 39.15117 | 151.88354 | 30853 ft | 565 kts | 53° |
| 2026-05-08 19:03 | 39.19590 | 151.96668 | 30858 ft | 564 kts | 53° |
| 2026-05-08 19:04 | 39.23978 | 152.04842 | 30853 ft | 563 kts | 53° |
| 2026-05-08 19:04 | 39.28431 | 152.13160 | 30849 ft | 562 kts | 53° |
| 2026-05-08 19:05 | 39.32864 | 152.21460 | 30855 ft | 562 kts | 53° |
| 2026-05-08 19:05 | 39.37293 | 152.29775 | 30876 ft | 562 kts | 53° |
| 2026-05-08 19:06 | 39.41693 | 152.38057 | 30859 ft | 562 kts | 53° |
| 2026-05-08 19:06 | 39.46103 | 152.46382 | 30851 ft | 561 kts | 53° |
| 2026-05-08 19:07 | 39.50512 | 152.54725 | 30863 ft | 561 kts | 53° |
| 2026-05-08 19:07 | 39.54899 | 152.63049 | 30856 ft | 559 kts | 53° |
| 2026-05-08 19:08 | 39.59276 | 152.71373 | 30855 ft | 558 kts | 53° |
| 2026-05-08 19:08 | 39.63646 | 152.79708 | 30857 ft | 558 kts | 53° |
| 2026-05-08 19:09 | 39.67262 | 152.86623 | 30855 ft | 558 kts | 53° |
| 2026-05-08 19:09 | 39.71618 | 152.94967 | 30864 ft | 559 kts | 53° |
| 2026-05-08 19:10 | 39.75888 | 153.03170 | 30880 ft | 560 kts | 53° |
| 2026-05-08 19:10 | 39.80254 | 153.11578 | 30873 ft | 562 kts | 53° |
| 2026-05-08 19:11 | 39.84617 | 153.20009 | 30872 ft | 561 kts | 53° |
| 2026-05-08 19:11 | 39.88969 | 153.28437 | 30871 ft | 560 kts | 53° |
| 2026-05-08 19:12 | 39.93307 | 153.36862 | 30873 ft | 559 kts | 53° |
| 2026-05-08 19:12 | 39.97627 | 153.45273 | 30880 ft | 558 kts | 54° |
| 2026-05-08 19:13 | 40.01926 | 153.53668 | 30881 ft | 556 kts | 54° |
| 2026-05-08 19:13 | 40.06213 | 153.62058 | 30874 ft | 555 kts | 54° |
| 2026-05-08 19:14 | 40.10487 | 153.70447 | 30879 ft | 554 kts | 54° |
| 2026-05-08 19:14 | 40.14723 | 153.78783 | 30878 ft | 555 kts | 54° |
| 2026-05-08 19:15 | 40.19013 | 153.87248 | 30891 ft | 556 kts | 54° |
| 2026-05-08 19:15 | 40.23290 | 153.95710 | 30885 ft | 558 kts | 54° |
| 2026-05-08 19:16 | 40.27478 | 154.04018 | 30889 ft | 559 kts | 54° |
| 2026-05-08 19:16 | 40.31726 | 154.12470 | 30891 ft | 560 kts | 54° |
| 2026-05-08 19:17 | 40.36006 | 154.21006 | 30893 ft | 560 kts | 54° |
| 2026-05-08 19:17 | 40.40281 | 154.29556 | 30887 ft | 560 kts | 54° |
| 2026-05-08 19:18 | 40.44542 | 154.38102 | 30890 ft | 560 kts | 54° |
| 2026-05-08 19:18 | 40.48797 | 154.46658 | 30890 ft | 559 kts | 54° |
| 2026-05-08 19:19 | 40.53039 | 154.55215 | 30915 ft | 558 kts | 54° |
| 2026-05-08 19:19 | 40.57263 | 154.63757 | 30892 ft | 558 kts | 55° |
| 2026-05-08 19:20 | 40.61481 | 154.72309 | 30889 ft | 556 kts | 55° |
| 2026-05-08 19:20 | 40.65685 | 154.80858 | 30891 ft | 555 kts | 55° |
| 2026-05-08 19:21 | 40.69877 | 154.89401 | 30891 ft | 555 kts | 55° |
| 2026-05-08 19:21 | 40.74062 | 154.97962 | 30899 ft | 555 kts | 55° |
| 2026-05-08 19:22 | 40.78168 | 155.06384 | 30898 ft | 555 kts | 55° |
| 2026-05-08 19:22 | 40.82336 | 155.14951 | 30895 ft | 555 kts | 55° |
| 2026-05-08 19:23 | 40.86495 | 155.23525 | 30897 ft | 555 kts | 55° |
| 2026-05-08 19:23 | 40.90656 | 155.32127 | 30916 ft | 555 kts | 55° |
| 2026-05-08 19:24 | 40.94812 | 155.40742 | 30904 ft | 556 kts | 55° |
| 2026-05-08 19:24 | 40.98973 | 155.49393 | 30899 ft | 557 kts | 55° |
| 2026-05-08 19:25 | 41.03122 | 155.58044 | 30895 ft | 557 kts | 55° |
| 2026-05-08 19:25 | 41.07243 | 155.66661 | 30906 ft | 557 kts | 55° |
| 2026-05-08 19:26 | 41.11384 | 155.75343 | 30900 ft | 557 kts | 55° |
| 2026-05-08 19:26 | 41.15517 | 155.84033 | 30898 ft | 556 kts | 55° |
| 2026-05-08 19:27 | 41.19637 | 155.92720 | 30904 ft | 556 kts | 55° |
| 2026-05-08 19:27 | 41.23674 | 156.01257 | 30909 ft | 555 kts | 55° |
| 2026-05-08 19:28 | 41.27776 | 156.09956 | 30921 ft | 555 kts | 55° |
| 2026-05-08 19:28 | 41.31876 | 156.18674 | 30922 ft | 556 kts | 56° |
| 2026-05-08 19:29 | 41.35974 | 156.27414 | 30914 ft | 556 kts | 56° |
| 2026-05-08 19:29 | 41.40060 | 156.36154 | 30913 ft | 556 kts | 56° |
| 2026-05-08 19:30 | 41.44146 | 156.44919 | 30917 ft | 557 kts | 56° |
| 2026-05-08 19:30 | 41.48226 | 156.53696 | 30931 ft | 557 kts | 56° |
| 2026-05-08 19:31 | 41.52300 | 156.62486 | 30919 ft | 557 kts | 56° |
| 2026-05-08 19:31 | 41.56370 | 156.71291 | 30926 ft | 557 kts | 56° |
| 2026-05-08 19:32 | 41.60396 | 156.80030 | 30925 ft | 556 kts | 56° |
| 2026-05-08 19:32 | 41.64444 | 156.88839 | 30960 ft | 556 kts | 56° |
| 2026-05-08 19:33 | 41.68484 | 156.97657 | 30923 ft | 556 kts | 56° |
| 2026-05-08 19:33 | 41.72457 | 157.06355 | 30944 ft | 556 kts | 56° |
| 2026-05-08 19:34 | 41.76481 | 157.15188 | 30939 ft | 556 kts | 56° |
| 2026-05-08 19:34 | 41.80499 | 157.24036 | 30945 ft | 555 kts | 56° |
| 2026-05-08 19:35 | 41.84507 | 157.32889 | 30949 ft | 555 kts | 56° |
| 2026-05-08 19:35 | 41.88507 | 157.41746 | 30949 ft | 555 kts | 56° |
| 2026-05-08 19:36 | 41.92492 | 157.50600 | 30933 ft | 555 kts | 56° |
| 2026-05-08 19:36 | 41.96478 | 157.59480 | 30952 ft | 554 kts | 56° |
| 2026-05-08 19:37 | 42.00443 | 157.68342 | 30967 ft | 554 kts | 56° |
| 2026-05-08 19:37 | 42.04417 | 157.77248 | 30953 ft | 556 kts | 56° |
| 2026-05-08 19:38 | 42.08390 | 157.86179 | 30951 ft | 557 kts | 56° |
| 2026-05-08 19:38 | 42.12364 | 157.95138 | 30953 ft | 557 kts | 56° |
| 2026-05-08 19:39 | 42.16263 | 158.03958 | 30947 ft | 558 kts | 56° |
| 2026-05-08 19:39 | 42.20227 | 158.12950 | 30952 ft | 558 kts | 56° |
| 2026-05-08 19:40 | 42.24183 | 158.21951 | 30955 ft | 558 kts | 56° |
| 2026-05-08 19:40 | 42.28133 | 158.30967 | 30954 ft | 557 kts | 56° |
| 2026-05-08 19:41 | 42.32066 | 158.39968 | 30949 ft | 557 kts | 56° |
| 2026-05-08 19:41 | 42.35994 | 158.48987 | 30979 ft | 557 kts | 56° |
| 2026-05-08 19:42 | 42.39918 | 158.58024 | 30954 ft | 557 kts | 57° |
| 2026-05-08 19:42 | 42.43838 | 158.67078 | 30953 ft | 558 kts | 57° |
| 2026-05-08 19:43 | 42.47758 | 158.76162 | 30953 ft | 558 kts | 57° |
| 2026-05-08 19:43 | 42.51667 | 158.85250 | 30955 ft | 559 kts | 57° |
| 2026-05-08 19:44 | 42.55575 | 158.94362 | 30955 ft | 559 kts | 57° |
| 2026-05-08 19:44 | 42.59372 | 159.03243 | 30951 ft | 558 kts | 57° |
| 2026-05-08 19:45 | 42.63285 | 159.12423 | 30952 ft | 558 kts | 57° |
| 2026-05-08 19:45 | 42.67138 | 159.21491 | 30955 ft | 558 kts | 57° |
| 2026-05-08 19:46 | 42.71004 | 159.30617 | 30973 ft | 557 kts | 57° |
| 2026-05-08 19:46 | 42.76795 | 159.44342 | 30951 ft | 558 kts | 57° |
| 2026-05-08 19:47 | 42.80649 | 159.53509 | 30957 ft | 558 kts | 57° |
| 2026-05-08 19:47 | 42.84489 | 159.62676 | 30954 ft | 557 kts | 57° |
| 2026-05-08 19:48 | 42.88328 | 159.71869 | 30950 ft | 557 kts | 57° |
| 2026-05-08 19:48 | 42.92154 | 159.81058 | 30949 ft | 557 kts | 57° |
| 2026-05-08 19:49 | 42.95970 | 159.90255 | 30954 ft | 557 kts | 57° |
| 2026-05-08 19:49 | 42.99783 | 159.99476 | 30948 ft | 557 kts | 58° |
| 2026-05-08 19:50 | 43.03265 | 160.08744 | 30949 ft | 558 kts | 61° |
| 2026-05-08 19:50 | 43.06644 | 160.18292 | 30961 ft | 558 kts | 62° |
| 2026-05-08 19:51 | 43.10013 | 160.27853 | 30950 ft | 558 kts | 61° |
| 2026-05-08 19:51 | 43.13406 | 160.37408 | 30941 ft | 558 kts | 61° |
| 2026-05-08 19:52 | 43.16807 | 160.46965 | 30942 ft | 558 kts | 61° |
| 2026-05-08 19:52 | 43.20200 | 160.56529 | 30948 ft | 558 kts | 61° |
| 2026-05-08 19:53 | 43.23554 | 160.66021 | 30938 ft | 558 kts | 61° |
| 2026-05-08 19:53 | 43.26929 | 160.75614 | 30939 ft | 558 kts | 62° |
| 2026-05-08 19:54 | 43.30290 | 160.85203 | 30936 ft | 558 kts | 62° |
| 2026-05-08 19:54 | 43.33644 | 160.94801 | 30935 ft | 557 kts | 62° |
| 2026-05-08 19:55 | 43.36930 | 161.04239 | 30939 ft | 557 kts | 62° |
| 2026-05-08 19:55 | 43.40261 | 161.13841 | 30939 ft | 557 kts | 62° |
| 2026-05-08 19:56 | 43.43590 | 161.23468 | 30936 ft | 557 kts | 62° |
| 2026-05-08 19:56 | 43.46350 | 161.31474 | 30927 ft | 558 kts | 62° |
| 2026-05-08 19:57 | 43.50223 | 161.42755 | 30943 ft | 558 kts | 62° |
| 2026-05-08 19:57 | 43.52975 | 161.50797 | 30937 ft | 558 kts | 62° |
| 2026-05-08 19:58 | 43.56276 | 161.60472 | 30930 ft | 558 kts | 62° |
| 2026-05-08 19:58 | 43.59571 | 161.70168 | 30927 ft | 558 kts | 62° |
| 2026-05-08 19:59 | 43.62853 | 161.79861 | 30931 ft | 558 kts | 62° |
| 2026-05-08 19:59 | 43.66133 | 161.89580 | 30929 ft | 558 kts | 62° |
| 2026-05-08 20:00 | 43.69404 | 161.99310 | 30938 ft | 558 kts | 62° |
| 2026-05-08 20:00 | 43.72600 | 162.08848 | 30942 ft | 558 kts | 62° |
| 2026-05-08 20:01 | 43.75854 | 162.18597 | 30934 ft | 558 kts | 62° |
| 2026-05-08 20:01 | 43.79098 | 162.28350 | 30932 ft | 558 kts | 63° |
| 2026-05-08 20:02 | 43.82336 | 162.38119 | 30930 ft | 558 kts | 63° |
| 2026-05-08 20:02 | 43.85565 | 162.47899 | 30932 ft | 558 kts | 63° |
| 2026-05-08 20:03 | 43.88779 | 162.57669 | 30933 ft | 557 kts | 63° |
| 2026-05-08 20:03 | 43.91986 | 162.67454 | 30937 ft | 557 kts | 63° |
| 2026-05-08 20:04 | 43.95183 | 162.77241 | 30937 ft | 557 kts | 63° |
| 2026-05-08 20:04 | 43.98367 | 162.87028 | 30937 ft | 556 kts | 63° |
| 2026-05-08 20:05 | 44.01540 | 162.96817 | 30938 ft | 556 kts | 63° |
| 2026-05-08 20:05 | 44.04659 | 163.06474 | 30943 ft | 556 kts | 63° |
| 2026-05-08 20:06 | 44.07796 | 163.16223 | 30943 ft | 556 kts | 63° |
| 2026-05-08 20:06 | 44.10946 | 163.26048 | 30939 ft | 556 kts | 63° |
| 2026-05-08 20:07 | 44.14087 | 163.35883 | 30947 ft | 556 kts | 63° |
| 2026-05-08 20:07 | 44.17222 | 163.45733 | 30948 ft | 556 kts | 63° |
| 2026-05-08 20:08 | 44.20351 | 163.55605 | 30955 ft | 558 kts | 63° |
| 2026-05-08 20:08 | 44.23478 | 163.65505 | 30960 ft | 558 kts | 63° |
| 2026-05-08 20:09 | 44.26602 | 163.75436 | 30957 ft | 559 kts | 63° |
| 2026-05-08 20:09 | 44.29720 | 163.85385 | 30966 ft | 560 kts | 63° |
| 2026-05-08 20:10 | 44.32830 | 163.95349 | 30966 ft | 560 kts | 63° |
| 2026-05-08 20:10 | 44.35883 | 164.05164 | 30970 ft | 560 kts | 63° |
| 2026-05-08 20:11 | 44.38986 | 164.15180 | 30976 ft | 560 kts | 63° |
| 2026-05-08 20:11 | 44.42071 | 164.25176 | 30982 ft | 560 kts | 63° |
| 2026-05-08 20:12 | 44.45146 | 164.35179 | 30982 ft | 560 kts | 63° |
| 2026-05-08 20:12 | 44.48215 | 164.45203 | 30996 ft | 560 kts | 63° |
| 2026-05-08 20:13 | 44.51256 | 164.55171 | 30994 ft | 560 kts | 63° |
| 2026-05-08 20:13 | 44.54309 | 164.65216 | 31017 ft | 560 kts | 64° |
| 2026-05-08 20:14 | 44.57374 | 164.75345 | 30999 ft | 561 kts | 64° |
| 2026-05-08 20:14 | 44.60391 | 164.85352 | 31005 ft | 561 kts | 64° |
| 2026-05-08 20:15 | 44.63419 | 164.95438 | 31011 ft | 561 kts | 64° |
| 2026-05-08 20:15 | 44.66383 | 165.05346 | 31007 ft | 561 kts | 64° |
| 2026-05-08 20:16 | 44.69396 | 165.15463 | 31014 ft | 562 kts | 64° |
| 2026-05-08 20:16 | 44.72406 | 165.25607 | 31015 ft | 562 kts | 64° |
| 2026-05-08 20:17 | 44.75402 | 165.35745 | 31024 ft | 562 kts | 64° |
| 2026-05-08 20:17 | 44.78393 | 165.45908 | 31040 ft | 562 kts | 64° |
| 2026-05-08 20:18 | 44.81375 | 165.56081 | 31025 ft | 562 kts | 64° |
| 2026-05-08 20:18 | 44.84350 | 165.66272 | 31031 ft | 562 kts | 64° |
| 2026-05-08 20:19 | 44.87314 | 165.76467 | 31036 ft | 562 kts | 64° |
| 2026-05-08 20:19 | 44.90273 | 165.86687 | 31046 ft | 563 kts | 64° |
| 2026-05-08 20:20 | 44.93209 | 165.96864 | 31046 ft | 564 kts | 65° |
| 2026-05-08 20:20 | 44.96108 | 166.06958 | 31047 ft | 565 kts | 65° |
| 2026-05-08 20:21 | 44.99055 | 166.17265 | 31051 ft | 566 kts | 64° |
| 2026-05-08 20:21 | 45.01987 | 166.27558 | 31048 ft | 567 kts | 64° |
| 2026-05-08 20:22 | 45.04923 | 166.37909 | 31048 ft | 567 kts | 64° |
| 2026-05-08 20:22 | 45.07844 | 166.48254 | 31057 ft | 566 kts | 64° |
| 2026-05-08 20:23 | 45.10758 | 166.58616 | 31056 ft | 566 kts | 64° |
| 2026-05-08 20:23 | 45.13659 | 166.68972 | 31059 ft | 566 kts | 64° |
| 2026-05-08 20:24 | 45.16549 | 166.79336 | 31060 ft | 566 kts | 65° |
| 2026-05-08 20:24 | 45.19429 | 166.89708 | 31053 ft | 566 kts | 65° |
| 2026-05-08 20:25 | 45.22294 | 167.00067 | 31054 ft | 566 kts | 65° |
| 2026-05-08 20:25 | 45.25115 | 167.10313 | 31069 ft | 567 kts | 65° |
| 2026-05-08 20:26 | 45.27976 | 167.20747 | 31073 ft | 568 kts | 65° |
| 2026-05-08 20:26 | 45.30815 | 167.31151 | 31073 ft | 569 kts | 65° |
| 2026-05-08 20:27 | 45.33687 | 167.41718 | 31070 ft | 569 kts | 65° |
| 2026-05-08 20:27 | 45.36529 | 167.52221 | 31088 ft | 569 kts | 65° |
| 2026-05-08 20:28 | 45.39339 | 167.62655 | 31078 ft | 569 kts | 65° |
| 2026-05-08 20:28 | 45.42162 | 167.73179 | 31078 ft | 569 kts | 65° |
| 2026-05-08 20:29 | 45.44969 | 167.83693 | 31081 ft | 568 kts | 65° |
| 2026-05-08 20:29 | 45.47769 | 167.94225 | 31084 ft | 568 kts | 65° |
| 2026-05-08 20:30 | 45.50506 | 168.04567 | 31081 ft | 567 kts | 65° |
| 2026-05-08 20:30 | 45.53300 | 168.15168 | 31082 ft | 567 kts | 65° |
| 2026-05-08 20:31 | 45.56042 | 168.25622 | 31100 ft | 567 kts | 65° |
| 2026-05-08 20:31 | 45.58802 | 168.36183 | 31088 ft | 569 kts | 66° |
| 2026-05-08 20:32 | 45.61556 | 168.46780 | 31089 ft | 569 kts | 66° |
| 2026-05-08 20:32 | 45.64301 | 168.57389 | 31083 ft | 570 kts | 66° |
| 2026-05-08 20:33 | 45.67042 | 168.68029 | 31090 ft | 570 kts | 66° |
| 2026-05-08 20:33 | 45.69774 | 168.78684 | 31088 ft | 571 kts | 66° |
| 2026-05-08 20:34 | 45.72494 | 168.89342 | 31082 ft | 571 kts | 66° |
| 2026-05-08 20:35 | 45.76508 | 169.05158 | 31097 ft | 570 kts | 66° |
| 2026-05-08 20:35 | 45.79205 | 169.15845 | 31096 ft | 570 kts | 66° |
| 2026-05-08 20:36 | 45.81885 | 169.26517 | 31089 ft | 569 kts | 67° |
| 2026-05-08 20:36 | 45.84557 | 169.37207 | 31096 ft | 569 kts | 67° |
| 2026-05-08 20:37 | 45.87215 | 169.47888 | 31098 ft | 569 kts | 67° |
| 2026-05-08 20:37 | 45.89863 | 169.58581 | 31107 ft | 569 kts | 67° |
| 2026-05-08 20:38 | 45.92486 | 169.69225 | 31090 ft | 570 kts | 67° |
| 2026-05-08 20:38 | 45.95117 | 169.79953 | 31087 ft | 570 kts | 67° |
| 2026-05-08 20:39 | 45.97745 | 169.90716 | 31091 ft | 570 kts | 67° |
| 2026-05-08 20:39 | 46.00226 | 170.01324 | 31097 ft | 572 kts | 71° |
| 2026-05-08 20:40 | 46.01955 | 170.12527 | 31104 ft | 575 kts | 76° |
| 2026-05-08 20:40 | 46.03501 | 170.23818 | 31083 ft | 575 kts | 76° |